Atascadero, CA

2:12 PM PDT on October 25, 2014 (GMT -0700)
Pine Mountain South Side | Change Station
CLOSE
Current Station
Personal Weather Station
Location: Atascadero, CA
Elevation: 991 ft
Nearby Weather Stations

Elev 991 ft 35.49 °N, 120.65 °W | Updated 39 seconds ago

Mostly Cloudy
Mostly Cloudy
73.2 °F
Feels Like 77 °F
N
3.1
Wind Variable Wind from SW
Gusts 4.5 mph

Today
High -- | Low -- °F
--% Chance of Precip.
Yesterday
High -- | Low -- °F
Precip. -- in
7:17 AM 6:14 PM
Waxing Crescent, 4% visible
Pressure 30.06 in
Visibility 10.0 miles
Clouds Scattered Clouds 4000 ft
Heat Index 77 °F
Dew Point 58 °F
Humidity 59%
Rainfall 0.00 in
Snow Depth Not available.
UV 4 out of 12
Pollen 4.00 out of 12
Air Quality Not available.
Flu Activity Sporadic
METAR KPRB 252053Z AUTO 22011KT 10SM SCT040 23/12 A3008 RMK AO2 SLP180 T02330122 58007 TSNO

More Conditions Fewer Conditions

Pressure 30.06 in
Visibility 10.0 miles
Clouds Scattered Clouds 4000 ft
Heat Index 77 °F
Dew Point 58 °F
Humidity 59%
Rainfall 0.00 in
Snow Depth Not available.
UV 4 out of 12
Pollen 4.00 out of 12
Air Quality Not available.
Flu Activity Sporadic
METAR KPRB 252053Z AUTO 22011KT 10SM SCT040 23/12 A3008 RMK AO2 SLP180 T02330122 58007 TSNO

More Conditions Fewer Conditions

10-Day Weather Forecast

Almanac

Astronomy

Oct. 25, 2014 Rise Set
Actual Time 7:17 AM PDT 6:14 PM PDT
Civil Twilight 6:51 AM PDT 6:40 PM PDT
Nautical Twilight 6:22 AM PDT 7:10 PM PDT
Astronomical Twilight 5:52 AM PDT 7:40 PM PDT
Moon 8:59 AM PDT 7:45 PM PDT
Length of Visible Light 11h 49m
Length of Day
10h 57m
Tomorrow will be 2m 2s shorter.
Waxing Crescent, 4% of the Moon is Illuminated
Today
Waxing Crescent
Oct 30
First Quarter
Nov 6
Full
Nov 14
Last Quarter
Nov 22
New

Today's Extremes

State Highs State Lows

Community

WunderPhotos

Upload Photos

1,764,997 photos uploaded!

Nearby

Snow Depth

Station Depth Elevation
Virginia Lakes Ridge 0 in 9200 ft
Leavitt Lake 0 in 9400 ft
Sonora Pass 0 in 8800 ft
Leavitt Meadows 0 in 7200 ft
Summit Meadow 0 in 9122 ft

Earthquake Activity

City Distance Mag. Time & Date
Coalinga, California 34 miles 2.5 11:01 PM PDT
2014-10-24
Solvang, California 78 miles 2.6 5:35 PM PDT
2014-10-22
Kettleman City, California 55 miles 2.5 9:08 AM PDT
2014-10-22
Minimum magnitude displayed is 2.5.

Coastal Water Temperatures

Place Temperature
No Stations Reporting

Nearby Weather Stations